EFW7JD LEPA-EGKK
Flight info
| Callsign | EFW7JD |
|---|---|
| Flight time | 1h 57m |
| Altitude | 36000 |
| Route | DRAGO5R DRAGO DCT PAPOS DCT UMURE DCT XIKEN DCT KARES DCT ARBEK DCT REBUL DCT USKAR DCT MOPAS DCT GIROM DCT GONUP DCT MANAK DCT TIRAV DCT DIXAD DCT NTS DCT BAKUL DCT REN DCT UPALO DCT REVTU DCT ODREP UP88 VASUX VASUX1G |
| Aircraft | A321/M-SDE3FGIJ1KRWXY/SB1 |
Departure
| Time | 2026-05-07 21:27 |
|---|---|
| Airport | Palma de Mallorca Airport (LEPA) |
Arrival
| Time | 2026-05-07 23:25 |
|---|---|
| Airport | London Gatwick Airport (EGKK) |
| Time | Latitude | Longitude | Altitude | Speed | Heading |
|---|---|---|---|---|---|
| 2026-05-07 21:01 | 39.54722 | 2.73680 | 35 ft | 0 kts | 60° |
| 2026-05-07 21:18 | 39.54715 | 2.73666 | 35 ft | 4 kts | 60° |
| 2026-05-07 21:18 | 39.54703 | 2.73636 | 33 ft | 4 kts | 68° |
| 2026-05-07 21:18 | 39.54696 | 2.73603 | 35 ft | 4 kts | 96° |
| 2026-05-07 21:18 | 39.54702 | 2.73583 | 34 ft | 0 kts | 149° |
| 2026-05-07 21:22 | 39.54700 | 2.73584 | 35 ft | 1 kts | 149° |
| 2026-05-07 21:22 | 39.54675 | 2.73604 | 35 ft | 6 kts | 149° |
| 2026-05-07 21:22 | 39.54637 | 2.73619 | 34 ft | 6 kts | 172° |
| 2026-05-07 21:22 | 39.54600 | 2.73635 | 33 ft | 6 kts | 152° |
| 2026-05-07 21:23 | 39.54565 | 2.73636 | 35 ft | 5 kts | 211° |
| 2026-05-07 21:23 | 39.54536 | 2.73590 | 36 ft | 8 kts | 238° |
| 2026-05-07 21:23 | 39.54496 | 2.73502 | 36 ft | 15 kts | 239° |
| 2026-05-07 21:23 | 39.54438 | 2.73380 | 36 ft | 16 kts | 238° |
| 2026-05-07 21:24 | 39.54384 | 2.73268 | 38 ft | 14 kts | 238° |
| 2026-05-07 21:24 | 39.54338 | 2.73173 | 37 ft | 11 kts | 237° |
| 2026-05-07 21:24 | 39.54301 | 2.73098 | 39 ft | 8 kts | 238° |
| 2026-05-07 21:24 | 39.54270 | 2.73056 | 39 ft | 5 kts | 202° |
| 2026-05-07 21:25 | 39.54239 | 2.73063 | 39 ft | 4 kts | 151° |
| 2026-05-07 21:25 | 39.54219 | 2.73113 | 39 ft | 9 kts | 104° |
| 2026-05-07 21:25 | 39.54213 | 2.73210 | 39 ft | 12 kts | 96° |
| 2026-05-07 21:25 | 39.54199 | 2.73308 | 38 ft | 10 kts | 101° |
| 2026-05-07 21:26 | 39.54213 | 2.73363 | 38 ft | 0 kts | 58° |
| 2026-05-07 21:26 | 39.54218 | 2.73376 | 38 ft | 11 kts | 58° |
| 2026-05-07 21:26 | 39.54412 | 2.73785 | 34 ft | 93 kts | 58° |
| 2026-05-07 21:27 | 39.54872 | 2.74756 | 30 ft | 158 kts | 58° |
| 2026-05-07 21:27 | 39.55504 | 2.76096 | 557 ft | 176 kts | 58° |
| 2026-05-07 21:27 | 39.56126 | 2.77445 | 1531 ft | 171 kts | 59° |
| 2026-05-07 21:27 | 39.56739 | 2.78789 | 1964 ft | 180 kts | 60° |
| 2026-05-07 21:28 | 39.57414 | 2.80273 | 2144 ft | 201 kts | 60° |
| 2026-05-07 21:28 | 39.58141 | 2.81874 | 2512 ft | 209 kts | 60° |
| 2026-05-07 21:28 | 39.58888 | 2.83520 | 3044 ft | 213 kts | 60° |
| 2026-05-07 21:28 | 39.59645 | 2.85187 | 3588 ft | 217 kts | 60° |
| 2026-05-07 21:29 | 39.60419 | 2.86890 | 4172 ft | 220 kts | 59° |
| 2026-05-07 21:29 | 39.61200 | 2.88601 | 4751 ft | 221 kts | 59° |
| 2026-05-07 21:29 | 39.61985 | 2.90309 | 5331 ft | 221 kts | 58° |
| 2026-05-07 21:29 | 39.63059 | 2.91735 | 5819 ft | 226 kts | 26° |
| 2026-05-07 21:30 | 39.64615 | 2.91969 | 6261 ft | 234 kts | 346° |
| 2026-05-07 21:30 | 39.65970 | 2.90814 | 6698 ft | 242 kts | 308° |
| 2026-05-07 21:30 | 39.66621 | 2.88782 | 7126 ft | 248 kts | 287° |
| 2026-05-07 21:30 | 39.67106 | 2.86625 | 7571 ft | 252 kts | 288° |
| 2026-05-07 21:31 | 39.67592 | 2.84470 | 8246 ft | 246 kts | 287° |
| 2026-05-07 21:31 | 39.68008 | 2.82327 | 8838 ft | 245 kts | 283° |
| 2026-05-07 21:31 | 39.68311 | 2.80145 | 9364 ft | 247 kts | 279° |
| 2026-05-07 21:31 | 39.68490 | 2.77908 | 9828 ft | 251 kts | 274° |
| 2026-05-07 21:32 | 39.68648 | 2.75651 | 10293 ft | 251 kts | 279° |
| 2026-05-07 21:32 | 39.69051 | 2.73418 | 10586 ft | 261 kts | 288° |
| 2026-05-07 21:32 | 39.69729 | 2.71168 | 10696 ft | 278 kts | 294° |
| 2026-05-07 21:32 | 39.70536 | 2.68792 | 10818 ft | 298 kts | 294° |
| 2026-05-07 21:33 | 39.71408 | 2.66232 | 10942 ft | 318 kts | 295° |
| 2026-05-07 21:33 | 39.72329 | 2.63531 | 11066 ft | 335 kts | 295° |
| 2026-05-07 21:33 | 39.73294 | 2.60697 | 11199 ft | 352 kts | 295° |
| 2026-05-07 21:33 | 39.74304 | 2.57729 | 11414 ft | 364 kts | 295° |
| 2026-05-07 21:34 | 39.75333 | 2.54702 | 11885 ft | 368 kts | 295° |
| 2026-05-07 21:34 | 39.76367 | 2.51646 | 12409 ft | 371 kts | 295° |
| 2026-05-07 21:34 | 39.77395 | 2.48598 | 12932 ft | 373 kts | 294° |
| 2026-05-07 21:34 | 39.78440 | 2.45492 | 13446 ft | 375 kts | 293° |
| 2026-05-07 21:35 | 39.79479 | 2.42407 | 14155 ft | 370 kts | 293° |
| 2026-05-07 21:35 | 39.80510 | 2.39347 | 14695 ft | 370 kts | 293° |
| 2026-05-07 21:35 | 39.81546 | 2.36263 | 15137 ft | 373 kts | 292° |
| 2026-05-07 21:35 | 39.82587 | 2.33162 | 15564 ft | 376 kts | 292° |
| 2026-05-07 21:36 | 39.83633 | 2.30020 | 15978 ft | 380 kts | 292° |
| 2026-05-07 21:36 | 39.84669 | 2.26849 | 16438 ft | 382 kts | 291° |
| 2026-05-07 21:36 | 39.85697 | 2.23664 | 16926 ft | 382 kts | 291° |
| 2026-05-07 21:36 | 39.86726 | 2.20458 | 17379 ft | 384 kts | 291° |
| 2026-05-07 21:37 | 39.87758 | 2.17239 | 17736 ft | 388 kts | 291° |
| 2026-05-07 21:37 | 39.88804 | 2.13981 | 18102 ft | 392 kts | 291° |
| 2026-05-07 21:37 | 39.89858 | 2.10696 | 18456 ft | 394 kts | 291° |
| 2026-05-07 21:37 | 39.90918 | 2.07388 | 18802 ft | 396 kts | 291° |
| 2026-05-07 21:38 | 39.91983 | 2.04068 | 19136 ft | 399 kts | 290° |
| 2026-05-07 21:38 | 39.93058 | 2.00723 | 19498 ft | 401 kts | 291° |
| 2026-05-07 21:38 | 39.94142 | 1.97362 | 19810 ft | 404 kts | 291° |
| 2026-05-07 21:38 | 39.95232 | 1.93978 | 20150 ft | 406 kts | 290° |
| 2026-05-07 21:39 | 39.96325 | 1.90568 | 20493 ft | 408 kts | 290° |
| 2026-05-07 21:39 | 39.97419 | 1.87148 | 20860 ft | 410 kts | 290° |
| 2026-05-07 21:39 | 39.98528 | 1.83711 | 21197 ft | 413 kts | 292° |
| 2026-05-07 21:39 | 39.99964 | 1.80446 | 21495 ft | 419 kts | 303° |
| 2026-05-07 21:40 | 40.01877 | 1.77553 | 21823 ft | 425 kts | 314° |
| 2026-05-07 21:40 | 40.04215 | 1.75168 | 22138 ft | 431 kts | 326° |
| 2026-05-07 21:40 | 40.06878 | 1.73420 | 22434 ft | 437 kts | 336° |
| 2026-05-07 21:40 | 40.09729 | 1.71978 | 22732 ft | 440 kts | 336° |
| 2026-05-07 21:41 | 40.12591 | 1.70522 | 23030 ft | 443 kts | 336° |
| 2026-05-07 21:41 | 40.15473 | 1.69050 | 23329 ft | 446 kts | 336° |
| 2026-05-07 21:41 | 40.18368 | 1.67565 | 23613 ft | 449 kts | 336° |
| 2026-05-07 21:41 | 40.21287 | 1.66063 | 23869 ft | 451 kts | 336° |
| 2026-05-07 21:42 | 40.24211 | 1.64553 | 24159 ft | 453 kts | 336° |
| 2026-05-07 21:42 | 40.27142 | 1.63038 | 24434 ft | 454 kts | 336° |
| 2026-05-07 21:42 | 40.30098 | 1.61510 | 24705 ft | 456 kts | 336° |
| 2026-05-07 21:42 | 40.33053 | 1.59983 | 24975 ft | 458 kts | 336° |
| 2026-05-07 21:43 | 40.36022 | 1.58448 | 25258 ft | 459 kts | 336° |
| 2026-05-07 21:43 | 40.39006 | 1.56906 | 25523 ft | 461 kts | 336° |
| 2026-05-07 21:43 | 40.41997 | 1.55360 | 25788 ft | 463 kts | 335° |
| 2026-05-07 21:43 | 40.45001 | 1.53804 | 26058 ft | 464 kts | 335° |
| 2026-05-07 21:44 | 40.47947 | 1.52277 | 26329 ft | 466 kts | 335° |
| 2026-05-07 21:44 | 40.50983 | 1.50704 | 26610 ft | 467 kts | 335° |
| 2026-05-07 21:44 | 40.54020 | 1.49129 | 26869 ft | 469 kts | 335° |
| 2026-05-07 21:44 | 40.57061 | 1.47544 | 27133 ft | 470 kts | 335° |
| 2026-05-07 21:45 | 40.60111 | 1.45951 | 27392 ft | 472 kts | 335° |
| 2026-05-07 21:45 | 40.63161 | 1.44356 | 27617 ft | 473 kts | 335° |
| 2026-05-07 21:45 | 40.66233 | 1.42750 | 27868 ft | 475 kts | 335° |
| 2026-05-07 21:45 | 40.69305 | 1.41146 | 28092 ft | 476 kts | 335° |
| 2026-05-07 21:46 | 40.72395 | 1.39530 | 28309 ft | 478 kts | 335° |
| 2026-05-07 21:46 | 40.75479 | 1.37917 | 28525 ft | 479 kts | 335° |
| 2026-05-07 21:46 | 40.78587 | 1.36291 | 28715 ft | 480 kts | 335° |
| 2026-05-07 21:46 | 40.81690 | 1.34668 | 28962 ft | 480 kts | 335° |
| 2026-05-07 21:47 | 40.84793 | 1.33045 | 29261 ft | 479 kts | 335° |
| 2026-05-07 21:47 | 40.87884 | 1.31426 | 29549 ft | 478 kts | 335° |
| 2026-05-07 21:47 | 40.90978 | 1.29802 | 29849 ft | 478 kts | 335° |
| 2026-05-07 21:47 | 40.94071 | 1.28175 | 29992 ft | 481 kts | 335° |
| 2026-05-07 21:48 | 40.97192 | 1.26531 | 30142 ft | 483 kts | 335° |
| 2026-05-07 21:48 | 41.00322 | 1.24882 | 30333 ft | 483 kts | 335° |
| 2026-05-07 21:48 | 41.03440 | 1.23235 | 30591 ft | 482 kts | 335° |
| 2026-05-07 21:48 | 41.06541 | 1.21592 | 30878 ft | 479 kts | 335° |
| 2026-05-07 21:49 | 41.09632 | 1.19952 | 31182 ft | 476 kts | 334° |
| 2026-05-07 21:49 | 41.12699 | 1.18344 | 31510 ft | 474 kts | 337° |
| 2026-05-07 21:49 | 41.15891 | 1.17173 | 31739 ft | 478 kts | 346° |
| 2026-05-07 21:49 | 41.19159 | 1.16660 | 31979 ft | 479 kts | 353° |
| 2026-05-07 21:50 | 41.22472 | 1.16341 | 32229 ft | 477 kts | 352° |
| 2026-05-07 21:50 | 41.25785 | 1.16006 | 32494 ft | 475 kts | 352° |
| 2026-05-07 21:50 | 41.29069 | 1.15662 | 32760 ft | 473 kts | 352° |
| 2026-05-07 21:50 | 41.32342 | 1.15312 | 33030 ft | 471 kts | 352° |
| 2026-05-07 21:51 | 41.35647 | 1.14956 | 33291 ft | 469 kts | 352° |
| 2026-05-07 21:51 | 41.38863 | 1.14615 | 33428 ft | 470 kts | 352° |
| 2026-05-07 21:51 | 41.42109 | 1.14275 | 33771 ft | 465 kts | 352° |
| 2026-05-07 21:51 | 41.45328 | 1.13943 | 33996 ft | 460 kts | 351° |
| 2026-05-07 21:52 | 41.51704 | 1.13274 | 34033 ft | 455 kts | 351° |
| 2026-05-07 21:52 | 41.57966 | 1.12602 | 34037 ft | 456 kts | 352° |
| 2026-05-07 21:53 | 41.64306 | 1.11920 | 34035 ft | 457 kts | 352° |
| 2026-05-07 21:53 | 41.70653 | 1.11249 | 34014 ft | 458 kts | 352° |
| 2026-05-07 21:54 | 41.75974 | 1.10692 | 34011 ft | 458 kts | 352° |
| 2026-05-07 21:54 | 41.82362 | 1.10011 | 33998 ft | 463 kts | 352° |
| 2026-05-07 21:55 | 41.88756 | 1.09324 | 33982 ft | 464 kts | 352° |
| 2026-05-07 21:55 | 41.95199 | 1.08645 | 33981 ft | 464 kts | 352° |
| 2026-05-07 21:56 | 42.01648 | 1.07955 | 33986 ft | 466 kts | 352° |
| 2026-05-07 21:56 | 42.08136 | 1.07246 | 33996 ft | 468 kts | 352° |
| 2026-05-07 21:57 | 42.14627 | 1.06546 | 34009 ft | 468 kts | 352° |
| 2026-05-07 21:57 | 42.21127 | 1.05854 | 34057 ft | 470 kts | 353° |
| 2026-05-07 21:58 | 42.27656 | 1.05156 | 34046 ft | 471 kts | 352° |
| 2026-05-07 21:58 | 42.34199 | 1.04449 | 34049 ft | 472 kts | 352° |
| 2026-05-07 21:59 | 42.40744 | 1.03744 | 34062 ft | 472 kts | 353° |
| 2026-05-07 21:59 | 42.47295 | 1.03033 | 34048 ft | 473 kts | 353° |
| 2026-05-07 22:00 | 42.53852 | 1.02308 | 34045 ft | 473 kts | 353° |
| 2026-05-07 22:00 | 42.60415 | 1.01599 | 34044 ft | 473 kts | 353° |
| 2026-05-07 22:01 | 42.66985 | 1.00883 | 34036 ft | 474 kts | 353° |
| 2026-05-07 22:01 | 42.73568 | 1.00156 | 34026 ft | 474 kts | 353° |
| 2026-05-07 22:02 | 42.80052 | 0.98856 | 34015 ft | 469 kts | 342° |
| 2026-05-07 22:02 | 42.86386 | 0.96672 | 34008 ft | 470 kts | 342° |
| 2026-05-07 22:03 | 42.92716 | 0.94487 | 34006 ft | 469 kts | 342° |
| 2026-05-07 22:03 | 42.99053 | 0.92297 | 34007 ft | 469 kts | 342° |
| 2026-05-07 22:04 | 43.05389 | 0.90105 | 33997 ft | 470 kts | 342° |
| 2026-05-07 22:04 | 43.11729 | 0.87906 | 33994 ft | 470 kts | 343° |
| 2026-05-07 22:05 | 43.18075 | 0.85702 | 33994 ft | 470 kts | 342° |
| 2026-05-07 22:05 | 43.24370 | 0.83505 | 33992 ft | 470 kts | 342° |
| 2026-05-07 22:06 | 43.30710 | 0.81290 | 33986 ft | 470 kts | 342° |
| 2026-05-07 22:06 | 43.37046 | 0.79067 | 33986 ft | 470 kts | 342° |
| 2026-05-07 22:07 | 43.43381 | 0.76844 | 33994 ft | 470 kts | 342° |
| 2026-05-07 22:07 | 43.49473 | 0.73913 | 33980 ft | 459 kts | 334° |
| 2026-05-07 22:08 | 43.55321 | 0.70458 | 33980 ft | 457 kts | 334° |
| 2026-05-07 22:08 | 43.61178 | 0.67006 | 33980 ft | 457 kts | 334° |
| 2026-05-07 22:09 | 43.67023 | 0.63569 | 33974 ft | 456 kts | 334° |
| 2026-05-07 22:09 | 43.72861 | 0.60123 | 33972 ft | 456 kts | 334° |
| 2026-05-07 22:10 | 43.78663 | 0.56680 | 33972 ft | 456 kts | 334° |
| 2026-05-07 22:10 | 43.84493 | 0.53205 | 33978 ft | 456 kts | 334° |
| 2026-05-07 22:11 | 43.90316 | 0.49728 | 33971 ft | 456 kts | 334° |
| 2026-05-07 22:11 | 43.96142 | 0.46249 | 33973 ft | 455 kts | 334° |
| 2026-05-07 22:12 | 44.01966 | 0.42768 | 33970 ft | 455 kts | 334° |
| 2026-05-07 22:12 | 44.07789 | 0.39281 | 33974 ft | 456 kts | 334° |
| 2026-05-07 22:13 | 44.13613 | 0.35785 | 33981 ft | 456 kts | 334° |
| 2026-05-07 22:13 | 44.19439 | 0.32279 | 33969 ft | 456 kts | 334° |
| 2026-05-07 22:14 | 44.25274 | 0.28769 | 33969 ft | 458 kts | 334° |
| 2026-05-07 22:14 | 44.31126 | 0.25236 | 33967 ft | 459 kts | 334° |
| 2026-05-07 22:15 | 44.36993 | 0.21671 | 33995 ft | 459 kts | 334° |
| 2026-05-07 22:15 | 44.39888 | 0.19909 | 34103 ft | 459 kts | 334° |
| 2026-05-07 22:15 | 44.42856 | 0.18106 | 34239 ft | 459 kts | 334° |
| 2026-05-07 22:16 | 44.45787 | 0.16328 | 34350 ft | 460 kts | 334° |
| 2026-05-07 22:16 | 44.48718 | 0.14546 | 34451 ft | 460 kts | 334° |
| 2026-05-07 22:16 | 44.51659 | 0.12750 | 34585 ft | 460 kts | 334° |
| 2026-05-07 22:16 | 44.54592 | 0.10955 | 34698 ft | 460 kts | 334° |
| 2026-05-07 22:17 | 44.57525 | 0.09162 | 34825 ft | 460 kts | 334° |
| 2026-05-07 22:17 | 44.60454 | 0.07373 | 34944 ft | 460 kts | 334° |
| 2026-05-07 22:17 | 44.63386 | 0.05583 | 35069 ft | 459 kts | 334° |
| 2026-05-07 22:17 | 44.66317 | 0.03790 | 35189 ft | 459 kts | 334° |
| 2026-05-07 22:18 | 44.69243 | 0.01997 | 35310 ft | 459 kts | 334° |
| 2026-05-07 22:18 | 44.75046 | -0.01576 | 35563 ft | 457 kts | 333° |
| 2026-05-07 22:18 | 44.77952 | -0.03373 | 35692 ft | 455 kts | 333° |
| 2026-05-07 22:19 | 44.80843 | -0.05161 | 35815 ft | 454 kts | 333° |
| 2026-05-07 22:19 | 44.83729 | -0.06945 | 35953 ft | 454 kts | 333° |
| 2026-05-07 22:19 | 44.86624 | -0.08733 | 35972 ft | 454 kts | 333° |
| 2026-05-07 22:20 | 44.92415 | -0.12308 | 35971 ft | 454 kts | 333° |
| 2026-05-07 22:20 | 44.98210 | -0.15889 | 35973 ft | 454 kts | 333° |
| 2026-05-07 22:21 | 45.04001 | -0.19490 | 35980 ft | 456 kts | 333° |
| 2026-05-07 22:21 | 45.09809 | -0.23112 | 35979 ft | 456 kts | 333° |
| 2026-05-07 22:22 | 45.15625 | -0.26748 | 35980 ft | 457 kts | 333° |
| 2026-05-07 22:22 | 45.21442 | -0.30385 | 35993 ft | 457 kts | 333° |
| 2026-05-07 22:23 | 45.27269 | -0.34043 | 35997 ft | 458 kts | 333° |
| 2026-05-07 22:23 | 45.33093 | -0.37703 | 35998 ft | 458 kts | 333° |
| 2026-05-07 22:24 | 45.38888 | -0.41345 | 36003 ft | 458 kts | 333° |
| 2026-05-07 22:24 | 45.44717 | -0.45025 | 35999 ft | 459 kts | 333° |
| 2026-05-07 22:25 | 45.50552 | -0.48718 | 35994 ft | 459 kts | 333° |
| 2026-05-07 22:25 | 45.56388 | -0.52416 | 36001 ft | 459 kts | 333° |
| 2026-05-07 22:26 | 45.62224 | -0.56124 | 36008 ft | 459 kts | 333° |
| 2026-05-07 22:26 | 45.68058 | -0.59852 | 35997 ft | 460 kts | 333° |
| 2026-05-07 22:27 | 45.73903 | -0.63586 | 36008 ft | 460 kts | 333° |
| 2026-05-07 22:27 | 45.79746 | -0.67331 | 36008 ft | 460 kts | 333° |
| 2026-05-07 22:28 | 45.85598 | -0.71085 | 36009 ft | 461 kts | 333° |
| 2026-05-07 22:28 | 45.91452 | -0.74838 | 36008 ft | 461 kts | 333° |
| 2026-05-07 22:29 | 45.97302 | -0.78597 | 36019 ft | 461 kts | 333° |
| 2026-05-07 22:29 | 46.03156 | -0.82380 | 36017 ft | 460 kts | 333° |
| 2026-05-07 22:30 | 46.08985 | -0.86162 | 36014 ft | 459 kts | 333° |
| 2026-05-07 22:30 | 46.14809 | -0.89938 | 36027 ft | 459 kts | 333° |
| 2026-05-07 22:31 | 46.20588 | -0.93823 | 36030 ft | 456 kts | 327° |
| 2026-05-07 22:31 | 46.25631 | -0.99151 | 36027 ft | 451 kts | 318° |
| 2026-05-07 22:32 | 46.30561 | -1.04868 | 36025 ft | 452 kts | 318° |
| 2026-05-07 22:32 | 46.35439 | -1.10511 | 36024 ft | 452 kts | 318° |
| 2026-05-07 22:33 | 46.40338 | -1.16208 | 36031 ft | 452 kts | 318° |
| 2026-05-07 22:33 | 46.45234 | -1.21916 | 36034 ft | 451 kts | 318° |
| 2026-05-07 22:34 | 46.50117 | -1.27623 | 36032 ft | 450 kts | 318° |
| 2026-05-07 22:34 | 46.54999 | -1.33331 | 36032 ft | 449 kts | 318° |
| 2026-05-07 22:35 | 46.59934 | -1.38905 | 36035 ft | 451 kts | 325° |
| 2026-05-07 22:35 | 46.65529 | -1.43086 | 36031 ft | 453 kts | 331° |
| 2026-05-07 22:36 | 46.71211 | -1.47089 | 36030 ft | 453 kts | 331° |
| 2026-05-07 22:36 | 46.76882 | -1.51114 | 36029 ft | 453 kts | 331° |
| 2026-05-07 22:37 | 46.82544 | -1.55156 | 36027 ft | 453 kts | 331° |
| 2026-05-07 22:37 | 46.88482 | -1.58275 | 36026 ft | 458 kts | 347° |
| 2026-05-07 22:38 | 46.93767 | -1.59011 | 36028 ft | 461 kts | 353° |
| 2026-05-07 22:38 | 47.00161 | -1.59644 | 36027 ft | 460 kts | 353° |
| 2026-05-07 22:39 | 47.06545 | -1.60303 | 36033 ft | 459 kts | 353° |
| 2026-05-07 22:39 | 47.12910 | -1.60962 | 36032 ft | 458 kts | 353° |
| 2026-05-07 22:40 | 47.19254 | -1.61650 | 36040 ft | 457 kts | 352° |
| 2026-05-07 22:40 | 47.25591 | -1.62512 | 36032 ft | 457 kts | 352° |
| 2026-05-07 22:41 | 47.31915 | -1.63418 | 36028 ft | 457 kts | 352° |
| 2026-05-07 22:41 | 47.38243 | -1.64299 | 36037 ft | 457 kts | 352° |
| 2026-05-07 22:42 | 47.44571 | -1.65187 | 36033 ft | 457 kts | 352° |
| 2026-05-07 22:42 | 47.50904 | -1.66092 | 36035 ft | 457 kts | 352° |
| 2026-05-07 22:43 | 47.57241 | -1.67006 | 36040 ft | 457 kts | 352° |
| 2026-05-07 22:43 | 47.63562 | -1.67916 | 36049 ft | 456 kts | 351° |
| 2026-05-07 22:44 | 47.69880 | -1.68814 | 36047 ft | 455 kts | 352° |
| 2026-05-07 22:44 | 47.76178 | -1.69710 | 36045 ft | 455 kts | 352° |
| 2026-05-07 22:45 | 47.82480 | -1.70620 | 36060 ft | 454 kts | 351° |
| 2026-05-07 22:45 | 47.88731 | -1.71527 | 36056 ft | 454 kts | 351° |
| 2026-05-07 22:46 | 47.95033 | -1.72438 | 36053 ft | 455 kts | 351° |
| 2026-05-07 22:46 | 48.01336 | -1.73349 | 36057 ft | 455 kts | 351° |
| 2026-05-07 22:47 | 48.07642 | -1.74182 | 36051 ft | 456 kts | 356° |
| 2026-05-07 22:47 | 48.14001 | -1.74256 | 36051 ft | 457 kts | 356° |
| 2026-05-07 22:48 | 48.20370 | -1.74318 | 36051 ft | 457 kts | 356° |
| 2026-05-07 22:48 | 48.26735 | -1.74402 | 36058 ft | 457 kts | 356° |
| 2026-05-07 22:49 | 48.33101 | -1.74481 | 36052 ft | 458 kts | 356° |
| 2026-05-07 22:49 | 48.39480 | -1.74557 | 36052 ft | 458 kts | 356° |
| 2026-05-07 22:50 | 48.45861 | -1.74635 | 36061 ft | 459 kts | 356° |
| 2026-05-07 22:50 | 48.52253 | -1.74707 | 36056 ft | 459 kts | 356° |
| 2026-05-07 22:51 | 48.58651 | -1.74792 | 36055 ft | 460 kts | 356° |
| 2026-05-07 22:51 | 48.65039 | -1.74877 | 36068 ft | 460 kts | 356° |
| 2026-05-07 22:52 | 48.71413 | -1.74958 | 36061 ft | 460 kts | 356° |
| 2026-05-07 22:52 | 48.77827 | -1.75033 | 36059 ft | 461 kts | 356° |
| 2026-05-07 22:53 | 48.84235 | -1.75113 | 36057 ft | 461 kts | 356° |
| 2026-05-07 22:53 | 48.90657 | -1.75187 | 36055 ft | 461 kts | 357° |
| 2026-05-07 22:54 | 48.97081 | -1.75095 | 36062 ft | 462 kts | 359° |
| 2026-05-07 22:54 | 49.03512 | -1.74781 | 36057 ft | 463 kts | 359° |
| 2026-05-07 22:55 | 49.09966 | -1.74453 | 36065 ft | 463 kts | 359° |
| 2026-05-07 22:55 | 49.16406 | -1.74195 | 36069 ft | 464 kts | 359° |
| 2026-05-07 22:56 | 49.22866 | -1.73972 | 36062 ft | 464 kts | 359° |
| 2026-05-07 22:56 | 49.29324 | -1.73742 | 36075 ft | 464 kts | 359° |
| 2026-05-07 22:57 | 49.35789 | -1.73487 | 36074 ft | 465 kts | 359° |
| 2026-05-07 22:57 | 49.42257 | -1.73225 | 36075 ft | 465 kts | 359° |
| 2026-05-07 22:58 | 49.48725 | -1.72979 | 36077 ft | 465 kts | 359° |
| 2026-05-07 22:58 | 49.55195 | -1.72730 | 36088 ft | 465 kts | 359° |
| 2026-05-07 22:59 | 49.61625 | -1.71459 | 35918 ft | 472 kts | 14° |
| 2026-05-07 22:59 | 49.64745 | -1.69836 | 35574 ft | 474 kts | 18° |
| 2026-05-07 22:59 | 49.67864 | -1.68113 | 35318 ft | 477 kts | 18° |
| 2026-05-07 22:59 | 49.70995 | -1.66374 | 34667 ft | 480 kts | 18° |
| 2026-05-07 23:00 | 49.74139 | -1.64624 | 33850 ft | 482 kts | 18° |
| 2026-05-07 23:00 | 49.77292 | -1.62871 | 32998 ft | 482 kts | 18° |
| 2026-05-07 23:00 | 49.80405 | -1.61140 | 32168 ft | 481 kts | 19° |
| 2026-05-07 23:00 | 49.83607 | -1.59356 | 31324 ft | 482 kts | 19° |
| 2026-05-07 23:01 | 49.86730 | -1.57617 | 30875 ft | 474 kts | 19° |
| 2026-05-07 23:01 | 49.89820 | -1.55897 | 30296 ft | 470 kts | 19° |
| 2026-05-07 23:01 | 49.92843 | -1.54210 | 29701 ft | 465 kts | 19° |
| 2026-05-07 23:01 | 49.95871 | -1.52518 | 29167 ft | 459 kts | 19° |
| 2026-05-07 23:02 | 49.98869 | -1.50841 | 28619 ft | 454 kts | 19° |
| 2026-05-07 23:02 | 50.01828 | -1.49218 | 28083 ft | 449 kts | 18° |
| 2026-05-07 23:02 | 50.04778 | -1.47713 | 27560 ft | 445 kts | 17° |
| 2026-05-07 23:02 | 50.07721 | -1.46295 | 27038 ft | 441 kts | 16° |
| 2026-05-07 23:03 | 50.10645 | -1.44925 | 26524 ft | 437 kts | 16° |
| 2026-05-07 23:03 | 50.13548 | -1.43566 | 26016 ft | 433 kts | 16° |
| 2026-05-07 23:03 | 50.16424 | -1.42197 | 25511 ft | 430 kts | 16° |
| 2026-05-07 23:03 | 50.19268 | -1.40818 | 25020 ft | 427 kts | 17° |
| 2026-05-07 23:04 | 50.22090 | -1.39432 | 24509 ft | 423 kts | 17° |
| 2026-05-07 23:04 | 50.24889 | -1.38049 | 24048 ft | 420 kts | 17° |
| 2026-05-07 23:04 | 50.27667 | -1.36670 | 23559 ft | 417 kts | 17° |
| 2026-05-07 23:04 | 50.30427 | -1.35302 | 23070 ft | 414 kts | 17° |
| 2026-05-07 23:05 | 50.33173 | -1.33942 | 22623 ft | 412 kts | 17° |
| 2026-05-07 23:05 | 50.35889 | -1.32598 | 22180 ft | 409 kts | 17° |
| 2026-05-07 23:05 | 50.38595 | -1.31258 | 21744 ft | 406 kts | 17° |
| 2026-05-07 23:05 | 50.41279 | -1.29927 | 21307 ft | 403 kts | 17° |
| 2026-05-07 23:06 | 50.43948 | -1.28603 | 20878 ft | 401 kts | 17° |
| 2026-05-07 23:06 | 50.46600 | -1.27290 | 20432 ft | 398 kts | 17° |
| 2026-05-07 23:06 | 50.49188 | -1.25812 | 19988 ft | 396 kts | 24° |
| 2026-05-07 23:06 | 50.51572 | -1.23674 | 19549 ft | 393 kts | 35° |
| 2026-05-07 23:07 | 50.53695 | -1.21003 | 19082 ft | 391 kts | 40° |
| 2026-05-07 23:07 | 50.55768 | -1.18263 | 18624 ft | 388 kts | 40° |
| 2026-05-07 23:07 | 50.57830 | -1.15538 | 18127 ft | 385 kts | 40° |
| 2026-05-07 23:07 | 50.59872 | -1.12838 | 17640 ft | 383 kts | 40° |
| 2026-05-07 23:08 | 50.61913 | -1.10144 | 17181 ft | 381 kts | 40° |
| 2026-05-07 23:08 | 50.63938 | -1.07477 | 16712 ft | 378 kts | 40° |
| 2026-05-07 23:08 | 50.65902 | -1.04749 | 16238 ft | 376 kts | 46° |
| 2026-05-07 23:08 | 50.67599 | -1.01621 | 15775 ft | 374 kts | 51° |
| 2026-05-07 23:09 | 50.69234 | -0.98461 | 15311 ft | 371 kts | 51° |
| 2026-05-07 23:09 | 50.70866 | -0.95317 | 14844 ft | 369 kts | 51° |
| 2026-05-07 23:09 | 50.72487 | -0.92200 | 14379 ft | 367 kts | 51° |
| 2026-05-07 23:09 | 50.74100 | -0.89093 | 13918 ft | 363 kts | 51° |
| 2026-05-07 23:10 | 50.75695 | -0.86011 | 13469 ft | 358 kts | 51° |
| 2026-05-07 23:10 | 50.77235 | -0.83026 | 13331 ft | 343 kts | 51° |
| 2026-05-07 23:10 | 50.78714 | -0.80155 | 13184 ft | 330 kts | 51° |
| 2026-05-07 23:10 | 50.80104 | -0.77355 | 12979 ft | 319 kts | 57° |
| 2026-05-07 23:11 | 50.81104 | -0.74321 | 12629 ft | 314 kts | 71° |
| 2026-05-07 23:11 | 50.81652 | -0.71009 | 12213 ft | 310 kts | 81° |
| 2026-05-07 23:11 | 50.82033 | -0.67656 | 12044 ft | 300 kts | 81° |
| 2026-05-07 23:11 | 50.82399 | -0.64512 | 11880 ft | 291 kts | 81° |
| 2026-05-07 23:12 | 50.82762 | -0.61393 | 11581 ft | 287 kts | 81° |
| 2026-05-07 23:12 | 50.83123 | -0.58291 | 11232 ft | 286 kts | 81° |
| 2026-05-07 23:12 | 50.83480 | -0.55227 | 10914 ft | 282 kts | 81° |
| 2026-05-07 23:12 | 50.83831 | -0.52199 | 10566 ft | 278 kts | 80° |
| 2026-05-07 23:13 | 50.84175 | -0.49213 | 10204 ft | 275 kts | 80° |
| 2026-05-07 23:13 | 50.84515 | -0.46250 | 9824 ft | 272 kts | 80° |
| 2026-05-07 23:13 | 50.84849 | -0.43340 | 9303 ft | 266 kts | 80° |
| 2026-05-07 23:13 | 50.85176 | -0.40493 | 8683 ft | 261 kts | 80° |
| 2026-05-07 23:14 | 50.85495 | -0.37688 | 8097 ft | 256 kts | 80° |
| 2026-05-07 23:14 | 50.85808 | -0.34944 | 7522 ft | 251 kts | 79° |
| 2026-05-07 23:14 | 50.86417 | -0.32415 | 6943 ft | 245 kts | 55° |
| 2026-05-07 23:14 | 50.87599 | -0.30550 | 6389 ft | 239 kts | 33° |
| 2026-05-07 23:15 | 50.88988 | -0.29101 | 6021 ft | 236 kts | 34° |
| 2026-05-07 23:15 | 50.90353 | -0.27729 | 5755 ft | 229 kts | 27° |
| 2026-05-07 23:15 | 50.91868 | -0.27122 | 5496 ft | 224 kts | 1° |
| 2026-05-07 23:15 | 50.93341 | -0.27634 | 5342 ft | 214 kts | 334° |
| 2026-05-07 23:16 | 50.94484 | -0.29061 | 5196 ft | 210 kts | 308° |
| 2026-05-07 23:16 | 50.95319 | -0.30970 | 5099 ft | 210 kts | 304° |
| 2026-05-07 23:16 | 50.96142 | -0.32886 | 4997 ft | 210 kts | 304° |
| 2026-05-07 23:16 | 50.96966 | -0.34807 | 4896 ft | 211 kts | 304° |
| 2026-05-07 23:17 | 50.97794 | -0.36731 | 4787 ft | 211 kts | 304° |
| 2026-05-07 23:17 | 50.98621 | -0.38651 | 4683 ft | 210 kts | 304° |
| 2026-05-07 23:17 | 50.99447 | -0.40566 | 4583 ft | 210 kts | 304° |
| 2026-05-07 23:17 | 51.00274 | -0.42485 | 4478 ft | 210 kts | 304° |
| 2026-05-07 23:18 | 51.01098 | -0.44397 | 4352 ft | 210 kts | 304° |
| 2026-05-07 23:18 | 51.01922 | -0.46308 | 4221 ft | 210 kts | 304° |
| 2026-05-07 23:18 | 51.02737 | -0.48206 | 4083 ft | 209 kts | 304° |
| 2026-05-07 23:18 | 51.03552 | -0.50110 | 3948 ft | 204 kts | 304° |
| 2026-05-07 23:19 | 51.04392 | -0.51929 | 3845 ft | 204 kts | 315° |
| 2026-05-07 23:19 | 51.05520 | -0.53253 | 3733 ft | 202 kts | 336° |
| 2026-05-07 23:19 | 51.06393 | -0.53744 | 3673 ft | 201 kts | 350° |
| 2026-05-07 23:19 | 51.07761 | -0.54012 | 3575 ft | 199 kts | 0° |
| 2026-05-07 23:20 | 51.09446 | -0.53204 | 3473 ft | 192 kts | 42° |
| 2026-05-07 23:20 | 51.10237 | -0.51559 | 3389 ft | 185 kts | 72° |
| 2026-05-07 23:20 | 51.10544 | -0.49596 | 3316 ft | 182 kts | 79° |
| 2026-05-07 23:20 | 51.10821 | -0.47638 | 3238 ft | 181 kts | 79° |
| 2026-05-07 23:21 | 51.11096 | -0.45686 | 3155 ft | 181 kts | 79° |
| 2026-05-07 23:21 | 51.11281 | -0.44367 | 3123 ft | 180 kts | 79° |
| 2026-05-07 23:21 | 51.11555 | -0.42418 | 2987 ft | 180 kts | 79° |
| 2026-05-07 23:21 | 51.11827 | -0.40483 | 2756 ft | 179 kts | 79° |
| 2026-05-07 23:22 | 51.12097 | -0.38555 | 2525 ft | 178 kts | 80° |
| 2026-05-07 23:22 | 51.12363 | -0.36656 | 2275 ft | 173 kts | 80° |
| 2026-05-07 23:22 | 51.12622 | -0.34806 | 2040 ft | 168 kts | 80° |
| 2026-05-07 23:22 | 51.12872 | -0.33020 | 1818 ft | 163 kts | 80° |
| 2026-05-07 23:23 | 51.13114 | -0.31286 | 1590 ft | 158 kts | 80° |
| 2026-05-07 23:23 | 51.13347 | -0.29614 | 1397 ft | 152 kts | 80° |
| 2026-05-07 23:23 | 51.13575 | -0.27972 | 1167 ft | 151 kts | 79° |
| 2026-05-07 23:23 | 51.13798 | -0.26378 | 904 ft | 148 kts | 78° |
| 2026-05-07 23:24 | 51.14030 | -0.24731 | 730 ft | 153 kts | 77° |
| 2026-05-07 23:24 | 51.14255 | -0.23111 | 527 ft | 151 kts | 78° |
| 2026-05-07 23:24 | 51.14476 | -0.21495 | 349 ft | 148 kts | 77° |
| 2026-05-07 23:24 | 51.14693 | -0.19927 | 214 ft | 138 kts | 77° |
| 2026-05-07 23:25 | 51.14869 | -0.18648 | 206 ft | 94 kts | 77° |
| 2026-05-07 23:25 | 51.14973 | -0.17895 | 218 ft | 48 kts | 78° |
| 2026-05-07 23:25 | 51.15024 | -0.17528 | 212 ft | 25 kts | 75° |
| 2026-05-07 23:25 | 51.15078 | -0.17309 | 212 ft | 20 kts | 59° |
| 2026-05-07 23:26 | 51.15140 | -0.17216 | 208 ft | 9 kts | 4° |
| 2026-05-07 23:26 | 51.15200 | -0.17267 | 213 ft | 11 kts | 325° |
| 2026-05-07 23:26 | 51.15262 | -0.17336 | 213 ft | 11 kts | 328° |
| 2026-05-07 23:26 | 51.15327 | -0.17366 | 213 ft | 6 kts | 347° |
| 2026-05-07 23:27 | 51.15374 | -0.17268 | 212 ft | 8 kts | 72° |
| 2026-05-07 23:27 | 51.15394 | -0.17170 | 215 ft | 10 kts | 65° |
| 2026-05-07 23:27 | 51.15418 | -0.17060 | 214 ft | 11 kts | 77° |
| 2026-05-07 23:28 | 51.15435 | -0.16934 | 211 ft | 12 kts | 77° |
| 2026-05-07 23:28 | 51.15453 | -0.16803 | 211 ft | 10 kts | 78° |
| 2026-05-07 23:28 | 51.15445 | -0.16712 | 213 ft | 7 kts | 91° |
| 2026-05-07 23:28 | 51.15454 | -0.16632 | 211 ft | 8 kts | 78° |
| 2026-05-07 23:29 | 51.15463 | -0.16589 | 215 ft | 3 kts | 56° |
| 2026-05-07 23:29 | 51.15485 | -0.16581 | 210 ft | 4 kts | 351° |
| 2026-05-07 23:29 | 51.15508 | -0.16593 | 211 ft | 3 kts | 346° |
| 2026-05-07 23:29 | 51.15524 | -0.16598 | 205 ft | 2 kts | 347° |
| 2026-05-07 23:30 | 51.15530 | -0.16600 | 205 ft | 0 kts | 348° |